Time;durP1;ratioP1;P1;durP2;ratioP2;P2;SDS_P1;SDS_P2;PMS_P1;PMS_P2;Temp;Humidity;BMP_temperature;BMP_pressure;BME280_temperature;BME280_humidity;BME280_pressure;Samples;Min_cycle;Max_cycle;Signal;HPM_P1;HPM_P2
2023/07/20 00:02:10;;;;;;;1999.90;999.90;;;;;;;24.82;55.85;101555.84;5053141;28;20032;-71
2023/07/20 00:04:35;;;;;;;1999.90;999.90;;;;;;;25.16;54.55;101556.50;5053146;28;20466;-71
2023/07/20 00:07:01;;;;;;;1999.90;999.90;;;;;;;25.11;53.98;101547.03;5053657;28;20044;-71
2023/07/20 00:09:27;;;;;;;1999.90;999.90;;;;;;;25.14;54.40;101550.41;5052700;28;20632;-71
2023/07/20 00:11:53;;;;;;;1999.90;999.90;;;;;;;25.21;54.33;101553.53;5052950;28;20027;-71
2023/07/20 00:14:19;;;;;;;1999.90;999.90;;;;;;;25.20;53.23;101563.38;5053706;28;20381;-71
2023/07/20 00:16:55;;;;;;;1999.90;999.90;;;;;;;25.30;53.17;101554.81;5052131;28;20017;-70
2023/07/20 00:19:23;;;;;;;1999.90;999.90;;;;;;;24.72;54.61;101558.19;5053217;28;20032;-71
2023/07/20 00:21:48;;;;;;;1999.90;999.90;;;;;;;24.70;54.73;101557.44;5053088;28;20499;-71
2023/07/20 00:24:14;;;;;;;1999.90;999.90;;;;;;;24.80;54.23;101547.06;5052464;28;20024;-71
2023/07/20 00:26:39;;;;;;;1999.90;999.90;;;;;;;24.42;55.24;101555.44;5070698;28;20476;-70
2023/07/20 00:29:05;;;;;;;1999.90;999.90;;;;;;;24.65;55.16;101556.00;5053178;28;20110;-70
2023/07/20 00:31:30;;;;;;;1999.90;999.90;;;;;;;24.01;57.10;101553.31;5052479;28;20035;-71
2023/07/20 00:33:56;;;;;;;1999.90;999.90;;;;;;;24.34;57.27;101561.22;5053046;28;20081;-71
2023/07/20 00:36:21;;;;;;;1999.90;999.90;;;;;;;24.29;56.96;101551.75;5053301;28;20054;-71
2023/07/20 00:38:47;;;;;;;1999.90;999.90;;;;;;;24.31;56.72;101555.22;5051964;28;20024;-71
2023/07/20 00:41:13;;;;;;;1999.90;999.90;;;;;;;24.22;57.16;101554.78;5070887;28;20020;-71
2023/07/20 00:43:38;;;;;;;1999.90;999.90;;;;;;;24.44;56.50;101566.03;5052306;28;20066;-70
2023/07/20 00:46:05;;;;;;;1999.90;999.90;;;;;;;24.92;54.77;101557.97;5052149;28;20167;-71
2023/07/20 00:48:32;;;;;;;1999.90;999.90;;;;;;;24.71;55.04;101552.94;5070945;28;20424;-71
2023/07/20 00:50:59;;;;;;;1999.90;999.90;;;;;;;24.51;55.71;101562.94;5052138;28;20017;-71
2023/07/20 00:53:24;;;;;;;1999.90;999.90;;;;;;;24.50;55.80;101550.53;5052299;28;20561;-70
2023/07/20 00:55:50;;;;;;;1999.90;999.90;;;;;;;24.72;55.45;101565.34;5066125;28;20135;-71
2023/07/20 00:58:15;;;;;;;1999.90;999.90;;;;;;;24.93;54.22;101557.03;5089772;28;20020;-71
2023/07/20 01:00:41;;;;;;;1999.90;999.90;;;;;;;24.86;54.96;101562.72;5088608;28;20055;-71
2023/07/20 01:03:06;;;;;;;1999.90;999.90;;;;;;;24.56;54.74;101550.19;5089322;28;20353;-70
2023/07/20 01:05:58;;;;;;;1999.90;999.90;;;;;;;25.05;53.47;101556.28;5088796;28;20031;-71
2023/07/20 01:08:50;;;;;;;1999.90;999.90;;;;;;;24.84;53.96;101553.06;5089559;28;20024;-71
2023/07/20 01:11:43;;;;;;;1999.90;999.90;;;;;;;24.55;54.45;101553.81;5078087;28;20032;-70
2023/07/20 01:14:09;;;;;;;;;;;;;;;24.44;54.25;101556.25;5089241;28;20465;-71
2023/07/20 01:16:34;;;;;;;1999.90;999.90;;;;;;;24.75;54.04;101567.00;5088414;28;20328;-70
2023/07/20 01:19:00;;;;;;;1999.90;999.90;;;;;;;24.60;54.07;101560.69;5089087;28;20024;-71
2023/07/20 01:21:34;;;;;;;1999.90;999.90;;;;;;;24.82;52.46;101561.19;5089751;28;20043;-70
2023/07/20 01:24:19;;;;;;;1999.90;999.90;;;;;;;25.00;51.89;101564.56;5089041;28;20476;-70
2023/07/20 01:27:09;;;;;;;1999.90;999.90;;;;;;;24.65;53.04;101564.00;5087925;28;20023;-70
2023/07/20 01:29:43;;;;;;;1999.90;999.90;;;;;;;25.01;51.76;101573.47;5089694;28;20051;-70
2023/07/20 01:32:09;;;;;;;1999.90;999.90;;;;;;;24.71;52.84;101568.97;5088849;28;20032;-70
2023/07/20 01:34:36;;;;;;;1999.90;999.90;;;;;;;24.65;53.14;101574.69;5089096;28;20039;-70
2023/07/20 01:37:03;;;;;;;1999.90;999.90;;;;;;;24.79;52.52;101569.38;5088856;28;20031;-70
2023/07/20 01:39:28;;;;;;;1999.90;999.90;;;;;;;24.69;52.72;101566.41;5088423;28;20031;-70
2023/07/20 01:41:55;;;;;;;1999.90;999.90;;;;;;;24.28;53.88;101563.41;5087656;28;20028;-70
2023/07/20 01:44:21;;;;;;;1999.90;999.90;;;;;;;24.01;54.19;101566.66;5089917;28;20055;-70
2023/07/20 01:46:46;;;;;;;1999.90;999.90;;;;;;;24.30;54.13;101570.34;5088305;28;20028;-69
2023/07/20 01:49:11;;;;;;;1999.90;999.90;;;;;;;24.35;54.00;101575.47;5089133;28;20035;-70
2023/07/20 01:51:37;;;;;;;1999.90;999.90;;;;;;;24.52;52.41;101580.72;5088248;28;20021;-70
2023/07/20 01:54:02;;;;;;;1999.90;999.90;;;;;;;24.38;53.01;101577.94;5088700;28;20518;-70
2023/07/20 01:56:28;;;;;;;1999.90;999.90;;;;;;;24.44;52.82;101576.72;5087679;28;20043;-70
2023/07/20 01:58:53;;;;;;;1999.90;999.90;;;;;;;24.31;52.86;101582.78;5089757;28;20032;-69
2023/07/20 02:01:19;;;;;;;1999.90;999.90;;;;;;;24.24;52.85;101575.22;5088582;28;20027;-70
2023/07/20 02:03:44;;;;;;;1999.90;999.90;;;;;;;24.55;52.06;101580.53;5088239;28;20024;-69
2023/07/20 02:06:09;;;;;;;1999.90;999.90;;;;;;;24.43;52.12;101577.66;5088474;28;20455;-70
2023/07/20 02:08:35;;;;;;;1999.90;999.90;;;;;;;24.42;52.05;101584.84;5087829;28;20020;-71
2023/07/20 02:11:01;;;;;;;1999.90;999.90;;;;;;;23.73;54.08;101581.47;5087778;28;20028;-69
2023/07/20 02:13:26;;;;;;;1999.90;999.90;;;;;;;23.62;54.67;101581.19;5088819;28;20108;-70
2023/07/20 02:15:52;;;;;;;1999.90;999.90;;;;;;;23.78;53.99;101584.78;5087195;28;20382;-70
2023/07/20 02:18:17;;;;;;;1999.90;999.90;;;;;;;23.37;54.46;101585.16;5088395;28;20016;-70
2023/07/20 02:20:42;;;;;;;1999.90;999.90;;;;;;;23.41;54.86;101586.72;5087940;28;20027;-70
2023/07/20 02:23:08;;;;;;;1999.90;999.90;;;;;;;23.48;54.64;101587.25;5087761;28;20345;-70
2023/07/20 02:25:34;;;;;;;1999.90;999.90;;;;;;;23.66;54.15;101580.09;5089509;28;20029;-70
2023/07/20 02:27:59;;;;;;;1999.90;999.90;;;;;;;23.87;52.86;101584.25;5088085;28;20016;-69
2023/07/20 02:30:25;;;;;;;1999.90;999.90;;;;;;;23.72;53.47;101585.09;5087738;28;20130;-70
2023/07/20 02:32:50;;;;;;;1999.90;999.90;;;;;;;23.74;53.27;101583.22;5087532;28;20032;-70
2023/07/20 02:35:16;;;;;;;1999.90;999.90;;;;;;;23.58;53.36;101579.63;5088274;28;20484;-70
2023/07/20 02:37:42;;;;;;;1999.90;999.90;;;;;;;23.75;52.80;101587.59;5088274;28;20050;-70
2023/07/20 02:40:08;;;;;;;1999.90;999.90;;;;;;;23.98;52.38;101580.19;5088023;28;20368;-69
2023/07/20 02:42:35;;;;;;;1999.90;999.90;;;;;;;24.04;51.37;101575.38;5087834;28;20042;-69
2023/07/20 02:45:02;;;;;;;1999.90;999.90;;;;;;;24.18;51.64;101574.59;5087479;28;20070;-70
2023/07/20 02:47:29;;;;;;;1999.90;999.90;;;;;;;24.18;51.13;101577.25;5088099;28;20032;-69
2023/07/20 02:49:54;;;;;;;1999.90;999.90;;;;;;;23.85;51.81;101580.81;5087577;28;20450;-70
2023/07/20 02:52:19;;;;;;;1999.90;999.90;;;;;;;24.29;50.19;101582.00;5089860;28;20035;-70
2023/07/20 02:54:45;;;;;;;1999.90;999.90;;;;;;;24.12;51.07;101585.59;5092649;28;20032;-70
2023/07/20 02:57:10;;;;;;;1999.90;999.90;;;;;;;23.75;51.74;101595.59;5091702;28;20052;-70
2023/07/20 02:59:36;;;;;;;1999.90;999.90;;;;;;;23.72;51.84;101598.44;5090615;28;20365;-71
2023/07/20 03:02:01;;;;;;;1999.90;999.90;;;;;;;23.79;51.92;101601.63;5091706;28;20024;-71
2023/07/20 03:04:27;;;;;;;1999.90;999.90;;;;;;;23.84;51.28;101597.78;5091800;28;20085;-70
2023/07/20 03:06:52;;;;;;;1999.90;999.90;;;;;;;23.56;52.36;101603.69;5090098;28;20031;-70
2023/07/20 03:09:18;;;;;;;1999.90;999.90;;;;;;;24.02;50.97;101603.09;5092899;28;20111;-70
2023/07/20 03:11:43;;;;;;;1999.90;999.90;;;;;;;23.77;51.15;101611.50;5090996;28;20114;-70
2023/07/20 03:14:10;;;;;;;1999.90;999.90;;;;;;;23.53;52.64;101611.88;5090771;28;20031;-70
2023/07/20 03:16:35;;;;;;;1999.90;999.90;;;;;;;23.50;52.13;101618.22;5092279;28;20031;-70
2023/07/20 03:19:01;;;;;;;1999.90;999.90;;;;;;;23.46;51.85;101615.81;5091294;28;20031;-70
2023/07/20 03:21:26;;;;;;;1999.90;999.90;;;;;;;23.12;52.99;101618.44;5090758;28;20017;-70
2023/07/20 03:23:52;;;;;;;1999.90;999.90;;;;;;;23.13;53.83;101625.47;5092212;28;20110;-70
2023/07/20 03:26:17;;;;;;;1999.90;999.90;;;;;;;23.09;53.72;101618.53;5091942;28;20032;-70
2023/07/20 03:28:43;;;;;;;1999.90;999.90;;;;;;;23.23;53.26;101614.34;5090732;28;20085;-70
2023/07/20 03:31:08;;;;;;;1999.90;999.90;;;;;;;23.36;53.24;101610.09;5091658;28;20031;-71
2023/07/20 03:33:34;;;;;;;1999.90;999.90;;;;;;;23.67;52.26;101608.47;5090167;28;20031;-69
2023/07/20 03:36:00;;;;;;;1999.90;999.90;;;;;;;23.99;50.43;101609.47;5091230;28;20135;-70
2023/07/20 03:38:27;;;;;;;1999.90;999.90;;;;;;;23.74;51.24;101619.69;5090974;28;20544;-70
2023/07/20 03:40:54;;;;;;;1999.90;999.90;;;;;;;23.55;51.94;101615.34;5089773;28;20038;-70
2023/07/20 03:43:20;;;;;;;1999.90;999.90;;;;;;;23.80;51.07;101614.88;5091021;28;20444;-70
2023/07/20 03:45:47;;;;;;;1999.90;999.90;;;;;;;23.49;51.75;101605.88;5090285;28;20074;-70
2023/07/20 03:48:13;;;;;;;1999.90;999.90;;;;;;;23.82;50.47;101607.69;5091755;28;20107;-70
2023/07/20 03:50:39;;;;;;;1999.90;999.90;;;;;;;23.65;50.57;101610.38;5090618;28;20456;-70
2023/07/20 03:53:04;;;;;;;1999.90;999.90;;;;;;;23.82;50.47;101613.03;5091020;28;20035;-71
2023/07/20 03:55:30;;;;;;;1999.90;999.90;;;;;;;23.85;49.55;101610.19;5085062;28;20106;-70
2023/07/20 03:57:56;;;;;;;1999.90;999.90;;;;;;;23.95;48.85;101607.91;5053322;28;20484;-70
2023/07/20 04:00:21;;;;;;;1999.90;999.90;;;;;;;23.41;51.19;101608.06;5053819;28;20032;-70
2023/07/20 04:02:47;;;;;;;1999.90;999.90;;;;;;;23.33;51.72;101610.28;5052405;28;20434;-70
2023/07/20 04:05:12;;;;;;;1999.90;999.90;;;;;;;23.18;52.46;101618.09;5053764;28;20024;-70
2023/07/20 04:07:38;;;;;;;1999.90;999.90;;;;;;;23.28;52.31;101617.63;5052911;28;20107;-70
2023/07/20 04:10:03;;;;;;;1999.90;999.90;;;;;;;22.88;53.92;101618.66;5052996;28;20031;-71
2023/07/20 04:12:29;;;;;;;1999.90;999.90;;;;;;;23.23;52.39;101625.00;5053367;28;20056;-71
2023/07/20 04:14:54;;;;;;;1999.90;999.90;;;;;;;23.27;52.33;101622.09;5071077;28;20079;-71
2023/07/20 04:17:20;;;;;;;1999.90;999.90;;;;;;;23.04;53.27;101625.91;5052489;28;20111;-71
2023/07/20 04:19:45;;;;;;;1999.90;999.90;;;;;;;23.39;52.89;101620.59;5052946;28;20340;-71
2023/07/20 04:22:10;;;;;;;1999.90;999.90;;;;;;;23.42;52.30;101620.44;5053393;28;20027;-71
2023/07/20 04:24:36;;;;;;;1999.90;999.90;;;;;;;23.31;52.44;101625.47;5052117;28;20119;-71
2023/07/20 04:27:01;;;;;;;1999.90;999.90;;;;;;;23.50;51.74;101623.56;5053257;28;20016;-71
2023/07/20 04:29:27;;;;;;;1999.90;999.90;;;;;;;23.45;52.39;101624.75;5070757;28;20517;-71
2023/07/20 04:31:52;;;;;;;1999.90;999.90;;;;;;;23.50;52.02;101623.56;5052443;28;20021;-70
2023/07/20 04:34:17;;;;;;;1999.90;999.90;;;;;;;23.17;53.53;101627.03;5053078;28;20024;-71
2023/07/20 04:36:43;;;;;;;1999.90;999.90;;;;;;;23.51;52.48;101619.13;5051924;28;20040;-71
2023/07/20 04:39:10;;;;;;;1999.90;999.90;;;;;;;23.72;52.39;101633.97;5053075;28;20031;-72
2023/07/20 04:41:35;;;;;;;1999.90;999.90;;;;;;;23.95;52.30;101633.75;5052243;28;20380;-70
2023/07/20 04:44:01;;;;;;;1999.90;999.90;;;;;;;23.96;52.47;101624.78;5052152;28;20055;-70
2023/07/20 04:46:26;;;;;;;1999.90;999.90;;;;;;;24.20;51.96;101623.44;5052965;28;20055;-70
2023/07/20 04:48:51;;;;;;;1999.90;999.90;;;;;;;23.91;53.11;101627.69;5052143;28;20115;-71
2023/07/20 04:51:20;;;;;;;1999.90;999.90;;;;;;;24.49;51.87;101628.09;5052060;28;20050;-71
2023/07/20 04:53:49;;;;;;;1999.90;999.90;;;;;;;24.75;51.01;101637.34;5052716;28;20420;-70
2023/07/20 04:56:14;;;;;;;1999.90;999.90;;;;;;;25.32;49.53;101633.16;5073639;28;20044;-70
2023/07/20 04:58:39;;;;;;;1999.90;999.90;;;;;;;25.42;50.07;101630.81;5088403;28;20035;-70
2023/07/20 05:01:05;;;;;;;1999.90;999.90;;;;;;;25.94;48.67;101624.06;5089208;28;20055;-70
2023/07/20 05:03:30;;;;;;;1999.90;999.90;;;;;;;26.01;48.02;101625.44;5089456;28;20036;-70
2023/07/20 05:05:57;;;;;;;1999.90;999.90;;;;;;;24.93;49.60;101627.41;5088460;28;20030;-70
2023/07/20 05:08:22;;;;;;;1999.90;999.90;;;;;;;25.47;49.26;101632.28;5089595;28;20020;-70
2023/07/20 05:10:48;;;;;;;1999.90;999.90;;;;;;;25.01;49.70;101637.66;5088475;28;20369;-70
2023/07/20 05:13:13;;;;;;;1999.90;999.90;;;;;;;24.51;51.74;101637.75;5088745;28;20020;-70
2023/07/20 05:15:39;;;;;;;1999.90;999.90;;;;;;;25.37;49.88;101636.44;5089301;28;20450;-70
2023/07/20 05:18:04;;;;;;;1999.90;999.90;;;;;;;25.61;50.15;101643.94;5089274;28;20119;-71
2023/07/20 05:20:31;;;;;;;1999.90;999.90;;;;;;;25.88;49.28;101646.75;5088511;28;20141;-70
2023/07/20 05:22:57;;;;;;;1999.90;999.90;;;;;;;25.23;50.65;101650.63;5088627;28;20408;-70
2023/07/20 05:25:23;;;;;;;1999.90;999.90;;;;;;;23.96;54.35;101655.03;5089276;28;20024;-70
2023/07/20 05:27:48;;;;;;;1999.90;999.90;;;;;;;23.97;56.01;101643.38;5087607;28;20031;-70
2023/07/20 05:30:13;;;;;;;1999.90;999.90;;;;;;;25.06;52.17;101655.16;5090082;28;20035;-70
2023/07/20 05:32:39;;;;;;;1999.90;999.90;;;;;;;25.51;50.78;101652.56;5088354;28;20024;-70
2023/07/20 05:35:05;;;;;;;1999.90;999.90;;;;;;;25.09;51.26;101647.88;5088743;28;20545;-70
2023/07/20 05:37:30;;;;;;;1999.90;999.90;;;;;;;24.70;53.39;101653.66;5088914;28;20024;-72
2023/07/20 05:39:56;;;;;;;1999.90;999.90;;;;;;;25.39;50.73;101650.63;5088361;28;20031;-72
2023/07/20 05:42:22;;;;;;;1999.90;999.90;;;;;;;24.08;53.59;101650.81;5089491;28;20020;-73
2023/07/20 05:44:49;;;;;;;1999.90;999.90;;;;;;;24.98;52.30;101651.22;5089159;28;20031;-72
2023/07/20 05:47:15;;;;;;;1999.90;999.90;;;;;;;24.99;52.67;101643.09;5090364;28;20028;-72
2023/07/20 05:49:40;;;;;;;1999.90;999.90;;;;;;;25.35;51.57;101643.72;5088719;28;20365;-71
2023/07/20 05:52:06;;;;;;;1999.90;999.90;;;;;;;24.46;52.01;101645.16;5089168;28;20069;-72
2023/07/20 05:54:31;;;;;;;1999.90;999.90;;;;;;;24.91;52.47;101640.00;5088700;28;20035;-71
2023/07/20 05:56:56;;;;;;;1999.90;999.90;;;;;;;24.85;52.67;101643.03;5088484;28;20048;-72
2023/07/20 05:59:23;;;;;;;1999.90;999.90;;;;;;;25.31;51.83;101642.16;5089025;28;20020;-71
2023/07/20 06:01:49;;;;;;;1999.90;999.90;;;;;;;24.78;52.53;101638.97;5087935;28;20103;-71
2023/07/20 06:04:15;;;;;;;1999.90;999.90;;;;;;;25.59;50.05;101648.53;5089112;28;20114;-71
2023/07/20 06:06:40;;;;;;;1999.90;999.90;;;;;;;25.30;48.70;101643.09;5088439;28;20019;-71
2023/07/20 06:09:09;;;;;;;1999.90;999.90;;;;;;;25.30;49.18;101643.09;5088145;28;20387;-72
2023/07/20 06:11:36;;;;;;;1999.90;999.90;;;;;;;25.34;49.61;101647.34;5088223;28;20050;-71
2023/07/20 06:14:01;;;;;;;1999.90;999.90;;;;;;;24.69;50.84;101653.75;5088609;28;20073;-71
2023/07/20 06:16:27;;;;;;;1999.90;999.90;;;;;;;24.56;52.11;101646.38;5087598;28;20473;-71
2023/07/20 06:18:52;;;;;;;1999.90;999.90;;;;;;;24.42;51.76;101661.47;5087915;28;20034;-70
2023/07/20 06:21:17;;;;;;;1999.90;999.90;;;;;;;24.97;50.29;101660.19;5088517;28;20028;-71
2023/07/20 06:23:43;;;;;;;1999.90;999.90;;;;;;;24.96;48.49;101659.28;5087411;28;20110;-71
2023/07/20 06:26:08;;;;;;;1999.90;999.90;;;;;;;24.69;48.38;101651.06;5089779;28;20511;-71
2023/07/20 06:28:34;;;;;;;1999.90;999.90;;;;;;;25.14;49.30;101657.38;5091917;28;20209;-71
2023/07/20 06:31:03;;;;;;;1999.90;999.90;;;;;;;25.72;49.23;101658.41;5091982;28;20494;-71
2023/07/20 06:33:29;;;;;;;1999.90;999.90;;;;;;;25.63;48.64;101658.97;5092056;28;20035;-71
2023/07/20 06:35:56;;;;;;;1999.90;999.90;;;;;;;26.01;46.30;101668.28;5091761;28;20031;-71
2023/07/20 06:38:23;;;;;;;1999.90;999.90;;;;;;;26.31;44.40;101667.31;5091528;28;20118;-71
2023/07/20 06:40:48;;;;;;;1999.90;999.90;;;;;;;28.15;42.50;101661.31;5091887;28;20024;-71
2023/07/20 06:43:14;;;;;;;1999.90;999.90;;;;;;;29.58;40.09;101668.66;5091533;28;20031;-71
2023/07/20 06:45:40;;;;;;;1999.90;999.90;;;;;;;30.23;37.98;101663.56;5091875;28;20028;-71
2023/07/20 06:48:06;;;;;;;1999.90;999.90;;;;;;;28.65;37.79;101673.91;5092373;28;20445;-72
2023/07/20 06:50:31;;;;;;;1999.90;999.90;;;;;;;27.95;40.28;101670.75;5091232;28;20051;-71
2023/07/20 06:52:58;;;;;;;1999.90;999.90;;;;;;;28.56;41.17;101662.81;5092833;28;20391;-71
2023/07/20 06:55:24;;;;;;;1999.90;999.90;;;;;;;28.68;42.21;101673.66;5087946;28;20043;-71
2023/07/20 06:57:49;;;;;;;1999.90;999.90;;;;;;;29.23;39.27;101669.50;5053615;28;20032;-71
2023/07/20 07:00:15;;;;;;;1999.90;999.90;;;;;;;28.70;37.12;101671.69;5055042;28;20419;-71
2023/07/20 07:02:40;;;;;;;1999.90;999.90;;;;;;;28.82;38.12;101672.63;5072532;28;20066;-70
2023/07/20 07:05:06;;;;;;;1999.90;999.90;;;;;;;29.10;37.65;101668.75;5054334;28;20052;-71
2023/07/20 07:07:33;;;;;;;1999.90;999.90;;;;;;;31.06;35.00;101669.41;5038654;28;20059;-71
2023/07/20 07:10:00;;;;;;;1999.90;999.90;;;;;;;29.82;34.59;101681.19;5054403;28;20028;-71
2023/07/20 07:12:25;;;;;;;1999.90;999.90;;;;;;;30.33;35.07;101674.47;5053923;28;20033;-71
2023/07/20 07:14:51;;;;;;;1999.90;999.90;;;;;;;28.85;38.18;101675.97;5054395;28;20036;-71
2023/07/20 07:17:16;;;;;;;1999.90;999.90;;;;;;;28.11;41.51;101678.63;5054806;28;20035;-71
2023/07/20 07:19:42;;;;;;;1999.90;999.90;;;;;;;27.99;41.81;101676.78;5053111;28;20431;-72
2023/07/20 07:22:07;;;;;;;1999.90;999.90;;;;;;;27.27;42.20;101680.72;5054609;28;20095;-71
2023/07/20 07:24:34;;;;;;;1999.90;999.90;;;;;;;27.45;42.09;101678.69;5054487;28;20484;-71
2023/07/20 07:27:01;;;;;;;1999.90;999.90;;;;;;;28.14;38.20;101681.09;5053890;28;20028;-71
2023/07/20 07:29:26;;;;;;;1999.90;999.90;;;;;;;29.98;38.54;101669.22;5054513;28;20025;-71
2023/07/20 07:31:52;;;;;;;1999.90;999.90;;;;;;;30.89;38.43;101669.97;5054149;28;20032;-71
2023/07/20 07:34:17;;;;;;;1999.90;999.90;;;;;;;31.72;30.50;101676.44;5053700;28;20514;-71
2023/07/20 07:36:43;;;;;;;1999.90;999.90;;;;;;;33.22;32.84;101672.97;5071889;28;20425;-71
2023/07/20 07:39:09;;;;;;;1999.90;999.90;;;;;;;33.40;32.56;101675.84;5053465;28;20017;-72
2023/07/20 07:41:35;;;;;;;1999.90;999.90;;;;;;;33.93;28.31;101677.16;5052959;28;20063;-71
2023/07/20 07:44:00;;;;;;;1999.90;999.90;;;;;;;34.38;27.51;101678.25;5054334;28;20029;-71
2023/07/20 07:46:26;;;;;;;1999.90;999.90;;;;;;;33.26;29.21;101680.72;5053378;28;20491;-72
2023/07/20 07:48:51;;;;;;;1999.90;999.90;;;;;;;33.63;30.12;101677.22;5071725;28;20024;-73
2023/07/20 07:51:16;;;;;;;1999.90;999.90;;;;;;;35.56;26.09;101670.88;5053892;28;20032;-69
2023/07/20 07:53:43;;;;;;;1999.90;999.90;;;;;;;35.49;26.97;101680.69;5053196;28;20274;-69
2023/07/20 07:56:09;;;;;;;1999.90;999.90;;;;;;;36.42;25.49;101681.88;5071720;28;20056;-69
2023/07/20 07:58:34;;;;;;;1999.90;999.90;;;;;;;37.05;23.96;101683.16;5053548;28;20503;-69
2023/07/20 08:01:00;;;;;;;1999.90;999.90;;;;;;;36.71;22.99;101683.28;5053474;28;20035;-70
2023/07/20 08:03:26;;;;;;;1999.90;999.90;;;;;;;35.99;25.60;101682.69;5053710;28;20016;-70
2023/07/20 08:05:56;;;;;;;1999.90;999.90;;;;;;;35.62;24.17;101672.94;5053341;28;20024;-71
2023/07/20 08:08:22;;;;;;;1999.90;999.90;;;;;;;35.90;24.37;101672.81;5053240;28;20029;-70
2023/07/20 08:10:48;;;;;;;1999.90;999.90;;;;;;;34.94;27.08;101682.59;5053311;28;20081;-71
2023/07/20 08:13:14;;;;;;;1999.90;999.90;;;;;;;32.65;31.67;101677.22;5053448;28;20025;-70
2023/07/20 08:15:41;;;;;;;1999.90;999.90;;;;;;;31.51;29.42;101687.22;5052300;28;20476;-70
2023/07/20 08:18:07;;;;;;;1999.90;999.90;;;;;;;29.83;31.78;101690.97;5053857;28;20036;-71
2023/07/20 08:20:35;;;;;;;1999.90;999.90;;;;;;;29.80;32.48;101693.94;5053669;28;20085;-71
2023/07/20 08:23:01;;;;;;;1999.90;999.90;;;;;;;33.26;30.55;101680.72;5053407;28;20028;-70
2023/07/20 08:25:26;;;;;;;1999.90;999.90;;;;;;;34.41;29.88;101694.22;5053474;28;20029;-71
2023/07/20 08:27:52;;;;;;;1999.90;999.90;;;;;;;34.76;26.00;101689.84;5053112;28;20157;-71
2023/07/20 08:30:17;;;;;;;1999.90;999.90;;;;;;;34.11;28.69;101682.63;5052728;28;20097;-71
2023/07/20 08:32:43;;;;;;;1999.90;999.90;;;;;;;35.37;29.52;101685.53;5052509;28;20040;-71
2023/07/20 08:35:09;;;;;;;1999.90;999.90;;;;;;;36.88;25.24;101682.31;5053113;28;20028;-71
2023/07/20 08:37:34;;;;;;;1999.90;999.90;;;;;;;36.20;25.97;101678.69;5051813;28;20020;-71
2023/07/20 08:40:00;;;;;;;1999.90;999.90;;;;;;;34.69;27.46;101667.88;5053056;28;20088;-71
2023/07/20 08:42:27;;;;;;;1999.90;999.90;;;;;;;33.44;28.71;101680.84;5053593;28;20056;-71
2023/07/20 08:44:54;;;;;;;1999.90;999.90;;;;;;;32.78;28.56;101686.94;5052084;28;20029;-72
2023/07/20 08:47:22;;;;;;;1999.90;999.90;;;;;;;33.93;28.29;101683.41;5054255;28;20055;-71
2023/07/20 08:49:50;;;;;;;1999.90;999.90;;;;;;;32.29;31.36;101687.66;5050474;28;20027;-71
2023/07/20 08:52:16;;;;;;;1999.90;999.90;;;;;;;31.38;31.01;101684.72;5052892;28;20028;-71
2023/07/20 08:54:41;;;;;;;1999.90;999.90;;;;;;;31.45;30.96;101682.38;5070208;28;20484;-70
2023/07/20 08:57:08;;;;;;;1999.90;999.90;;;;;;;30.12;32.76;101693.25;5087395;28;20056;-70
2023/07/20 08:59:36;;;;;;;1999.90;999.90;;;;;;;29.85;33.98;101686.34;5089911;28;20024;-71
2023/07/20 09:02:04;;;;;;;1999.90;999.90;;;;;;;28.87;34.38;101684.78;5089784;28;20020;-70
2023/07/20 09:04:30;;;;;;;1999.90;999.90;;;;;;;28.78;35.24;101685.44;5090460;28;20024;-71
2023/07/20 09:06:56;;;;;;;1999.90;999.90;;;;;;;28.65;35.55;101685.50;5089111;28;20535;-70
2023/07/20 09:09:22;;;;;;;1999.90;999.90;;;;;;;28.01;37.29;101685.59;5090028;28;20077;-70
2023/07/20 09:11:49;;;;;;;1999.90;999.90;;;;;;;28.76;35.65;101690.09;5088368;28;20112;-70
2023/07/20 09:14:15;;;;;;;1999.90;999.90;;;;;;;29.14;34.86;101682.81;5089689;28;20042;-70
2023/07/20 09:16:48;;;;;;;1999.90;999.90;;;;;;;29.36;35.39;101690.13;5089393;28;20031;-70
2023/07/20 09:19:16;;;;;;;1999.90;999.90;;;;;;;29.87;32.88;101687.09;5090059;28;20028;-70
2023/07/20 09:21:44;;;;;;;1999.90;999.90;;;;;;;29.66;33.48;101686.06;5089205;28;20085;-70
2023/07/20 09:24:10;;;;;;;1999.90;999.90;;;;;;;29.96;31.73;101682.81;5090738;28;20028;-71
2023/07/20 09:26:41;;;;;;;1999.90;999.90;;;;;;;31.62;30.55;101678.22;5088518;28;20028;-70
2023/07/20 09:29:11;;;;;;;1999.90;999.90;;;;;;;33.33;31.71;101685.53;5089740;28;20054;-71
2023/07/20 09:31:37;;;;;;;1999.90;999.90;;;;;;;33.98;26.47;101681.13;5088602;28;20020;-71
2023/07/20 09:34:04;;;;;;;1999.90;999.90;;;;;;;31.83;28.87;101675.50;5088511;28;20077;-70
2023/07/20 09:36:36;;;;;;;1999.90;999.90;;;;;;;31.56;29.47;101674.19;5089495;28;20123;-71
2023/07/20 09:39:03;;;;;;;1999.90;999.90;;;;;;;30.58;31.16;101672.50;5089693;28;20468;-71
2023/07/20 09:41:29;;;;;;;1999.90;999.90;;;;;;;31.30;32.96;101669.19;5089156;28;20054;-70
2023/07/20 09:43:54;;;;;;;1999.90;999.90;;;;;;;31.88;31.36;101672.41;5089019;28;20388;-71
2023/07/20 09:46:20;;;;;;;1999.90;999.90;;;;;;;30.98;31.82;101674.56;5088215;28;20027;-70
2023/07/20 09:48:53;;;;;;;1999.90;999.90;;;;;;;30.98;31.98;101673.72;5088761;28;20150;-70
2023/07/20 09:51:22;;;;;;;1999.90;999.90;;;;;;;31.55;32.21;101667.06;5089024;28;20055;-71
2023/07/20 09:53:48;;;;;;;1999.90;999.90;;;;;;;30.90;31.78;101672.53;5087754;28;20053;-71
2023/07/20 09:56:17;;;;;;;1999.90;999.90;;;;;;;31.71;32.22;101671.16;5077870;28;20061;-71
2023/07/20 09:58:45;;;;;;;1999.90;999.90;;;;;;;32.25;30.44;101670.00;5051746;28;20392;-71
2023/07/20 10:01:14;;;;;;;1999.90;999.90;;;;;;;31.24;31.47;101664.31;5051149;28;20038;-71
2023/07/20 10:03:43;;;;;;;1999.90;999.90;;;;;;;32.48;29.30;101664.38;5051668;28;20453;-72
2023/07/20 10:06:12;;;;;;;1999.90;999.90;;;;;;;34.45;26.16;101663.06;5069916;28;20093;-71
2023/07/20 10:08:42;;;;;;;1999.90;999.90;;;;;;;34.94;24.93;101666.31;5051028;28;20032;-71
2023/07/20 10:11:08;;;;;;;1999.90;999.90;;;;;;;35.08;25.28;101658.63;5069855;28;20480;-72
2023/07/20 10:13:39;;;;;;;1999.90;999.90;;;;;;;33.47;26.88;101666.16;5051419;28;20043;-72
2023/07/20 10:16:10;;;;;;;1999.90;999.90;;;;;;;33.71;27.72;101670.22;5051009;28;20052;-71
2023/07/20 10:18:59;;;;;;;1999.90;999.90;;;;;;;34.64;27.14;101665.66;5069523;28;20035;-71
2023/07/20 10:21:25;;;;;;;1999.90;999.90;;;;;;;34.39;26.36;101666.38;5051019;28;20338;-72
2023/07/20 10:23:50;;;;;;;1999.90;999.90;;;;;;;34.63;27.89;101661.22;5051064;28;20040;-72
2023/07/20 10:26:16;;;;;;;1999.90;999.90;;;;;;;34.97;26.25;101668.69;5051647;28;20032;-72
2023/07/20 10:28:42;;;;;;;1999.90;999.90;;;;;;;35.93;25.39;101655.28;5050705;28;20020;-72
2023/07/20 10:31:13;;;;;;;1999.90;999.90;;;;;;;35.51;25.98;101659.63;5069598;28;20094;-71
2023/07/20 10:33:39;;;;;;;1999.90;999.90;;;;;;;34.70;26.49;101660.63;5069104;28;20033;-72
2023/07/20 10:36:05;;;;;;;1999.90;999.90;;;;;;;35.58;25.56;101649.81;5050963;28;20032;-72
2023/07/20 10:38:46;;;;;;;1999.90;999.90;;;;;;;36.20;24.13;101656.94;5069471;28;20033;-71
2023/07/20 10:41:39;;;;;;;1999.90;999.90;;;;;;;35.98;24.88;101652.94;5051536;28;20058;-71
2023/07/20 10:44:09;;;;;;;1999.90;999.90;;;;;;;33.76;27.08;101659.78;5050859;28;20485;-71
2023/07/20 10:46:47;;;;;;;1999.90;999.90;;;;;;;33.27;27.30;101660.75;5051017;28;20127;-70